Gunnar Thorson — OUDU — position and weather

sailwx.info

Track history (hours):
 
Tides and Currents Weather Stations Pressure Air Temp Water Temp Dewpoint Dewpoint Depression Visibility Wind Speed Wind Dir Waves Ship Positions

Oceanographic research ship Gunnar Thorson (Denmark)

Detailed information on ship capabilities available from University of Delaware's Ocean Information Center.

Last reported at 2018-Jun-16 11:29 UTC. Time now 2018-Jun-19 01:26 UTC.
Position N 57°26' E 010°32'.

Length 48 m; draft 4.2 m.

Type: Military. MMSI: 219263000.

Date/timePositionNaut miles runAvg speedWind from/ knotsBaromVisibWave heightAir tempDewpointWater temp
2018-Jun-16 11:29N 57°26' E 010°32'  
2018-Jun-13 12:59N 57°21' E 010°37'2 0.9
2018-Jun-13 11:04N 57°23' E 010°39'0 1.4
2018-Jun-13 10:55N 57°23' E 010°38'1 3.5
2018-Jun-13 10:30N 57°23' E 010°36'2 2.6
2018-Jun-13 09:51N 57°25' E 010°36'2 0.1
2018-Jun-12 19:00N 57°26' E 010°32'0 0.0
2018-Jun-12 17:54N 57°26' E 010°32'0 0.0
2018-Jun-12 17:24N 57°26' E 010°32'0 0.0
2018-Jun-12 17:00N 57°26' E 010°32'0 0.0
2018-Jun-12 16:18N 57°26' E 010°32'0 0.0
2018-Jun-12 16:00N 57°26' E 010°32'0 0.0
2018-Jun-12 15:30N 57°26' E 010°32'  
Track history (hours):
 
Tides and Currents Weather Stations Pressure Air Temp Water Temp Dewpoint Dewpoint Depression Visibility Wind Speed Wind Dir Waves Ship Positions

Oceanographic research ship Gunnar Thorson (Denmark)

Detailed information on ship capabilities available from University of Delaware's Ocean Information Center.

Last reported at 2018-Jun-16 11:29 UTC. Time now 2018-Jun-19 01:26 UTC.
Position N 57°26' E 010°32'.

Length 48 m; draft 4.2 m.

Type: Military. MMSI: 219263000.

Date/timePositionNaut miles runAvg speedWind from/ knotsBaromVisibWave heightAir tempDewpointWater temp
2018-Jun-16 11:29N 57°26' E 010°32'  
2018-Jun-13 12:59N 57°21' E 010°37'2 0.9
2018-Jun-13 11:04N 57°23' E 010°39'0 1.4
2018-Jun-13 10:55N 57°23' E 010°38'1 3.5
2018-Jun-13 10:30N 57°23' E 010°36'2 2.6
2018-Jun-13 09:51N 57°25' E 010°36'2 0.1
2018-Jun-12 19:00N 57°26' E 010°32'0 0.0
2018-Jun-12 17:54N 57°26' E 010°32'0 0.0
2018-Jun-12 17:24N 57°26' E 010°32'0 0.0
2018-Jun-12 17:00N 57°26' E 010°32'0 0.0
2018-Jun-12 16:18N 57°26' E 010°32'0 0.0
2018-Jun-12 16:00N 57°26' E 010°32'0 0.0
2018-Jun-12 15:30N 57°26' E 010°32'  

Dump ship's entire track history